Time;durP1;ratioP1;P1;durP2;ratioP2;P2;SDS_P1;SDS_P2;PMS_P1;PMS_P2;Temp;Humidity;BMP_temperature;BMP_pressure;BME280_temperature;BME280_humidity;BME280_pressure;Samples;Min_cycle;Max_cycle;Signal;HPM_P1;HPM_P2
2021/05/12 00:01:53;;;;;;;19.37;9.20;;;;;;;22.38;44.09;100193.91;5118490;28;20464;-49
2021/05/12 00:04:20;;;;;;;18.27;9.23;;;;;;;22.46;44.08;100197.28;5117866;28;20468;-49
2021/05/12 00:06:47;;;;;;;27.43;13.50;;;;;;;22.41;43.47;100201.78;5115389;28;20547;-48
2021/05/12 00:09:15;;;;;;;21.27;10.30;;;;;;;22.73;43.34;100194.25;5117011;27;20782;-51
2021/05/12 00:11:42;;;;;;;17.80;9.97;;;;;;;22.62;43.32;100208.44;5118331;28;20467;-49
2021/05/12 00:14:10;;;;;;;21.30;9.00;;;;;;;21.96;45.12;100213.78;5117465;28;20460;-50
2021/05/12 00:16:37;;;;;;;21.03;9.70;;;;;;;22.16;44.62;100220.53;5117378;28;20453;-49
2021/05/12 00:19:04;;;;;;;15.33;9.60;;;;;;;22.26;43.78;100216.00;5117408;27;20555;-49
2021/05/12 00:21:35;;;;;;;20.20;9.53;;;;;;;22.11;44.74;100217.09;5118402;28;20459;-47
2021/05/12 00:24:03;;;;;;;16.73;9.27;;;;;;;22.41;44.35;100214.91;5116818;27;20464;-48
2021/05/12 00:26:36;;;;;;;31.63;15.37;;;;;;;21.48;46.08;100216.16;5117741;28;20441;-48
2021/05/12 00:29:05;;;;;;;22.10;12.80;;;;;;;22.19;44.41;100214.38;5116384;28;20839;-51
2021/05/12 00:31:33;;;;;;;17.73;9.73;;;;;;;22.05;44.65;100211.94;5118155;28;20460;-47
2021/05/12 00:34:00;;;;;;;19.30;10.50;;;;;;;22.12;44.35;100218.84;5116859;27;20463;-50
2021/05/12 00:36:28;;;;;;;15.13;9.27;;;;;;;22.31;43.90;100223.81;5114818;28;20828;-48
2021/05/12 00:38:56;;;;;;;16.03;10.70;;;;;;;22.43;43.82;100220.13;5116631;28;20929;-48
2021/05/12 00:41:24;;;;;;;18.67;10.07;;;;;;;22.47;43.08;100232.31;5117560;28;20491;-48
2021/05/12 00:43:51;;;;;;;15.50;9.07;;;;;;;22.43;44.06;100231.50;5116320;27;20910;-49
2021/05/12 00:46:18;;;;;;;19.67;10.87;;;;;;;22.44;43.88;100238.50;5117375;28;20489;-48
2021/05/12 00:48:46;;;;;;;16.00;10.30;;;;;;;22.20;44.63;100237.13;5117069;28;20507;-51
2021/05/12 00:51:13;;;;;;;17.60;9.60;;;;;;;22.25;43.86;100238.78;5117131;28;20513;-50
2021/05/12 00:53:40;;;;;;;19.67;10.70;;;;;;;21.84;45.28;100235.84;5117707;28;20445;-47
2021/05/12 00:56:10;;;;;;;21.20;10.70;;;;;;;22.48;43.37;100229.69;5113321;28;20775;-49
2021/05/12 00:58:37;;;;;;;18.57;10.70;;;;;;;22.29;44.00;100231.72;5117059;28;20469;-50
2021/05/12 01:01:05;;;;;;;12.50;8.90;;;;;;;22.54;43.12;100220.00;5115792;27;20469;-49
2021/05/12 01:03:32;;;;;;;18.13;10.73;;;;;;;22.49;43.62;100214.75;5117399;28;20544;-50
2021/05/12 01:06:02;;;;;;;18.07;9.93;;;;;;;22.21;44.26;100223.94;5116632;28;20923;-47
2021/05/12 01:08:29;;;;;;;18.17;9.83;;;;;;;22.00;44.42;100222.53;5114279;28;20929;-51
2021/05/12 01:10:57;;;;;;;22.63;9.30;;;;;;;21.46;46.02;100218.81;5115803;27;20479;-48
2021/05/12 01:13:27;;;;;;;21.80;9.97;;;;;;;21.92;44.73;100220.00;5116823;28;20568;-48
2021/05/12 01:15:54;;;;;;;19.10;9.20;;;;;;;22.45;43.68;100221.81;5114817;27;20764;-54
2021/05/12 01:18:22;;;;;;;15.33;9.60;;;;;;;22.68;42.84;100204.84;5115303;28;20473;-49
2021/05/12 01:20:55;;;;;;;13.90;8.00;;;;;;;22.41;42.95;100220.16;5115068;28;20473;-51
2021/05/12 01:23:24;;;;;;;13.70;8.57;;;;;;;22.61;43.13;100221.63;5116185;28;20494;-48
2021/05/12 01:25:53;;;;;;;10.57;7.30;;;;;;;22.50;43.50;100220.00;5114544;28;20477;-49
2021/05/12 01:28:22;;;;;;;23.80;13.23;;;;;;;22.37;43.61;100218.47;5115343;28;20925;-49
2021/05/12 01:30:54;;;;;;;15.53;8.20;;;;;;;22.58;42.84;100221.66;5114500;28;20485;-50
2021/05/12 01:33:21;;;;;;;16.77;8.43;;;;;;;22.72;42.64;100198.63;5115677;28;20457;-47
2021/05/12 01:35:49;;;;;;;11.23;7.03;;;;;;;22.70;42.89;100200.41;5114682;28;21215;-48
2021/05/12 01:38:17;;;;;;;16.07;7.50;;;;;;;22.51;43.57;100221.75;5115383;28;20473;-47
2021/05/12 01:40:44;;;;;;;15.13;8.67;;;;;;;22.37;43.66;100223.72;5115186;28;20473;-49
2021/05/12 01:43:12;;;;;;;13.23;7.77;;;;;;;22.89;42.39;100231.66;5115266;28;20468;-48
2021/05/12 01:45:39;;;;;;;21.30;7.70;;;;;;;22.86;42.14;100235.19;5114433;28;20916;-51
2021/05/12 01:48:08;;;;;;;13.20;6.70;;;;;;;22.77;42.32;100244.09;5114882;28;20491;-47
2021/05/12 01:50:36;;;;;;;15.87;7.40;;;;;;;22.20;43.85;100243.22;5114460;28;20487;-48
2021/05/12 01:53:03;;;;;;;13.63;6.50;;;;;;;22.37;43.46;100255.25;5115516;28;20503;-49
2021/05/12 01:55:32;;;;;;;14.93;6.80;;;;;;;22.49;43.11;100247.19;5098247;28;20664;-49
2021/05/12 01:57:59;;;;;;;12.90;7.60;;;;;;;22.64;42.95;100253.09;5096169;28;20787;-49
2021/05/12 02:00:28;;;;;;;15.70;7.50;;;;;;;22.65;42.83;100250.47;5095215;28;20560;-49
2021/05/12 02:02:56;;;;;;;16.37;7.73;;;;;;;22.75;42.51;100245.91;5096204;28;20962;-49
2021/05/12 02:05:25;;;;;;;12.80;7.00;;;;;;;23.10;41.60;100238.28;5095426;28;20535;-50
2021/05/12 02:07:53;;;;;;;14.67;6.73;;;;;;;22.50;42.62;100235.75;5095872;28;20502;-48
2021/05/12 02:10:20;;;;;;;21.70;7.77;;;;;;;22.57;43.13;100227.81;5095106;28;20549;-49
2021/05/12 02:12:48;;;;;;;12.40;7.90;;;;;;;22.75;42.46;100235.41;5096088;28;20954;-48
2021/05/12 02:15:16;;;;;;;15.43;7.70;;;;;;;22.28;43.47;100234.34;5098922;28;20556;-50
2021/05/12 02:17:43;;;;;;;11.57;7.40;;;;;;;22.64;42.33;100232.06;5116272;28;20483;-49
2021/05/12 02:20:12;;;;;;;16.80;7.80;;;;;;;22.91;42.36;100229.84;5115296;28;20468;-50
2021/05/12 02:22:41;;;;;;;16.40;6.90;;;;;;;22.63;42.90;100227.72;5116530;28;20768;-49
2021/05/12 02:25:09;;;;;;;17.47;9.33;;;;;;;22.27;43.36;100225.63;5114412;28;20504;-48
2021/05/12 02:27:38;;;;;;;15.20;7.90;;;;;;;22.39;43.26;100237.69;5116122;28;20487;-49
2021/05/12 02:30:08;;;;;;;14.43;8.50;;;;;;;22.78;42.56;100235.31;5114992;28;20494;-48
2021/05/12 02:32:36;;;;;;;14.30;8.10;;;;;;;22.66;42.40;100230.28;5116455;28;20461;-49
2021/05/12 02:35:04;;;;;;;16.70;8.10;;;;;;;22.37;43.56;100221.94;5115302;27;20464;-49
2021/05/12 02:37:31;;;;;;;13.20;8.00;;;;;;;22.49;43.15;100227.91;5115854;28;20457;-49
2021/05/12 02:39:58;;;;;;;17.97;9.13;;;;;;;22.09;44.12;100222.38;5114704;27;20571;-50
2021/05/12 02:42:25;;;;;;;18.00;8.60;;;;;;;21.98;44.32;100222.53;5116094;28;20547;-48
2021/05/12 02:44:52;;;;;;;18.57;8.93;;;;;;;22.12;44.32;100216.22;5114394;27;20771;-49
2021/05/12 02:47:21;;;;;;;14.13;8.63;;;;;;;22.19;43.77;100212.59;5112445;28;20748;-49
2021/05/12 02:49:48;;;;;;;15.00;9.87;;;;;;;21.82;44.38;100221.00;5114736;27;20852;-48
2021/05/12 02:52:15;;;;;;;17.50;10.90;;;;;;;21.96;44.20;100218.19;5115629;28;20820;-50
2021/05/12 02:54:42;;;;;;;19.13;10.60;;;;;;;21.96;44.56;100219.03;5114514;28;20551;-49
2021/05/12 02:57:09;;;;;;;19.03;11.60;;;;;;;22.50;43.14;100212.13;5115727;28;20453;-49
2021/05/12 02:59:36;;;;;;;26.23;13.00;;;;;;;22.18;43.30;100210.88;5114725;27;20501;-48
2021/05/12 03:02:04;;;;;;;19.83;10.57;;;;;;;22.01;44.27;100205.88;5115995;28;20452;-51
2021/05/12 03:04:32;;;;;;;23.97;13.07;;;;;;;22.21;43.04;100205.56;5115307;27;20468;-50
2021/05/12 03:06:59;;;;;;;33.47;17.87;;;;;;;22.05;44.34;100206.69;5115519;28;20463;-49
2021/05/12 03:09:26;;;;;;;27.57;14.83;;;;;;;22.45;43.29;100206.06;5114566;27;20487;-49
2021/05/12 03:11:53;;;;;;;30.93;15.27;;;;;;;22.20;43.83;100201.19;5116101;28;20459;-48
2021/05/12 03:14:21;;;;;;;23.27;13.43;;;;;;;22.35;43.64;100199.25;5114513;27;20495;-50
2021/05/12 03:16:48;;;;;;;25.67;14.97;;;;;;;22.67;43.16;100205.75;5115552;28;20457;-50
2021/05/12 03:19:17;;;;;;;31.90;16.80;;;;;;;22.31;43.69;100201.00;5114564;28;20500;-51
2021/05/12 03:21:44;;;;;;;28.87;17.60;;;;;;;22.64;42.86;100205.78;5116038;28;20457;-50
2021/05/12 03:24:11;;;;;;;29.40;17.57;;;;;;;22.81;42.67;100208.13;5114631;28;20560;-51
2021/05/12 03:26:38;;;;;;;29.47;17.30;;;;;;;22.16;43.59;100210.03;5117193;28;20487;-51
2021/05/12 03:29:06;;;;;;;35.17;19.17;;;;;;;22.25;44.11;100215.13;5115621;28;20488;-49
2021/05/12 03:31:33;;;;;;;32.37;19.70;;;;;;;22.00;44.36;100214.66;5119668;28;20762;-50
2021/05/12 03:34:00;;;;;;;38.10;20.90;;;;;;;22.11;44.08;100217.97;5118818;28;20909;-47
2021/05/12 03:36:27;;;;;;;34.60;20.63;;;;;;;22.10;44.13;100231.13;5119410;28;20488;-49
2021/05/12 03:38:55;;;;;;;37.13;21.60;;;;;;;21.91;44.98;100231.41;5118188;28;20526;-46
2021/05/12 03:41:22;;;;;;;38.27;23.00;;;;;;;22.21;43.70;100223.94;5119491;28;20860;-47
2021/05/12 03:43:49;;;;;;;39.80;23.53;;;;;;;22.03;44.49;100229.47;5118277;28;20464;-48
2021/05/12 03:46:16;;;;;;;34.73;22.40;;;;;;;22.22;44.30;100228.34;5119146;28;20554;-54
2021/05/12 03:48:43;;;;;;;42.10;23.03;;;;;;;22.16;44.57;100220.53;5118910;28;20491;-51
2021/05/12 03:51:10;;;;;;;41.10;24.17;;;;;;;22.48;43.85;100221.78;5118336;28;20477;-48
2021/05/12 03:53:38;;;;;;;45.17;23.50;;;;;;;22.37;44.06;100229.81;5119433;28;20543;-51
2021/05/12 03:56:06;;;;;;;40.20;22.93;;;;;;;22.32;43.93;100230.81;5118006;28;20563;-50
2021/05/12 03:58:33;;;;;;;44.80;23.97;;;;;;;22.31;43.84;100231.69;5118702;28;20568;-48
2021/05/12 04:01:00;;;;;;;46.03;24.03;;;;;;;22.73;42.99;100237.19;5117626;28;20840;-50
2021/05/12 04:03:28;;;;;;;39.33;23.57;;;;;;;22.57;43.50;100235.69;5119084;28;20456;-52
2021/05/12 04:05:55;;;;;;;39.13;22.67;;;;;;;22.19;44.37;100235.38;5117902;28;20504;-48
2021/05/12 04:08:25;;;;;;;38.20;23.30;;;;;;;22.22;44.57;100241.47;5118591;28;20851;-47
2021/05/12 04:10:52;;;;;;;37.20;22.20;;;;;;;22.72;43.52;100242.47;5117552;28;20473;-48
2021/05/12 04:13:21;;;;;;;47.47;26.27;;;;;;;22.46;43.80;100246.34;5118813;28;20445;-49
2021/05/12 04:15:48;;;;;;;41.53;22.70;;;;;;;22.25;43.98;100251.91;5117438;28;20491;-48
2021/05/12 04:18:16;;;;;;;37.40;22.03;;;;;;;22.33;44.57;100249.19;5118404;28;20567;-49
2021/05/12 04:20:43;;;;;;;37.07;20.30;;;;;;;22.43;43.81;100257.78;5118002;28;20583;-50
2021/05/12 04:23:10;;;;;;;34.27;20.03;;;;;;;21.91;45.11;100267.28;5118589;28;20453;-47
2021/05/12 04:25:38;;;;;;;35.57;20.50;;;;;;;22.20;44.08;100266.88;5117373;27;20475;-49
2021/05/12 04:28:05;;;;;;;37.37;19.27;;;;;;;22.44;43.65;100277.91;5118173;28;20484;-47
2021/05/12 04:30:33;;;;;;;46.13;22.30;;;;;;;22.46;44.09;100272.63;5117185;28;20477;-48
2021/05/12 04:33:00;;;;;;;34.37;19.20;;;;;;;22.41;43.99;100272.72;5118522;28;20638;-47
2021/05/12 04:35:29;;;;;;;35.37;19.90;;;;;;;22.55;44.38;100275.13;5117687;27;20476;-49
2021/05/12 04:37:56;;;;;;;36.70;18.43;;;;;;;21.90;45.28;100276.03;5117672;28;20472;-47
2021/05/12 04:40:24;;;;;;;41.50;20.03;;;;;;;21.95;45.50;100285.59;5116960;28;20469;-47
2021/05/12 04:42:51;;;;;;;36.10;19.60;;;;;;;22.87;43.35;100280.78;5118105;28;20457;-48
2021/05/12 04:45:19;;;;;;;43.03;20.40;;;;;;;22.96;42.76;100285.88;5116877;27;20493;-47
2021/05/12 04:47:55;;;;;;;40.17;20.20;;;;;;;22.57;43.68;100294.41;5117775;28;20473;-50
2021/05/12 04:50:25;;;;;;;40.53;19.97;;;;;;;22.38;44.30;100288.50;5117264;28;20525;-48
2021/05/12 04:52:52;;;;;;;42.73;22.37;;;;;;;22.87;43.25;100284.25;5118023;28;20445;-50
2021/05/12 04:55:20;;;;;;;39.20;20.60;;;;;;;22.41;44.25;100275.34;5116103;28;20575;-51
2021/05/12 04:57:47;;;;;;;40.30;18.60;;;;;;;22.02;44.87;100267.13;5117820;28;20856;-47
2021/05/12 05:00:15;;;;;;;40.17;19.37;;;;;;;22.02;45.41;100269.75;5116743;28;20943;-47
2021/05/12 05:02:42;;;;;;;31.37;16.40;;;;;;;22.08;45.35;100272.28;5117924;28;20548;-52
2021/05/12 05:05:12;;;;;;;36.60;18.07;;;;;;;21.84;45.97;100279.63;5116952;28;20780;-49
2021/05/12 05:07:39;;;;;;;32.70;16.90;;;;;;;21.71;46.08;100282.41;5117325;28;20469;-48
2021/05/12 05:10:08;;;;;;;31.17;17.13;;;;;;;22.02;45.45;100275.00;5116347;28;20789;-48
2021/05/12 05:12:35;;;;;;;34.57;19.07;;;;;;;21.96;45.60;100274.19;5117982;28;20460;-49
2021/05/12 05:15:03;;;;;;;30.57;14.53;;;;;;;21.26;46.88;100274.09;5116409;28;20560;-49
2021/05/12 05:17:31;;;;;;;30.27;14.23;;;;;;;21.70;46.48;100275.38;5117067;28;20474;-50
2021/05/12 05:19:59;;;;;;;32.87;16.73;;;;;;;21.82;46.48;100276.13;5116713;28;20576;-49
2021/05/12 05:22:28;;;;;;;35.70;16.07;;;;;;;21.81;46.08;100277.03;5117098;28;20491;-49
2021/05/12 05:24:56;;;;;;;40.43;16.67;;;;;;;22.10;45.69;100275.78;5116188;28;20472;-51
2021/05/12 05:27:24;;;;;;;28.80;14.90;;;;;;;21.94;45.70;100273.34;5116810;28;20555;-47
2021/05/12 05:29:51;;;;;;;26.07;14.47;;;;;;;21.70;46.17;100270.13;5115957;28;20491;-48
2021/05/12 05:32:18;;;;;;;31.40;16.40;;;;;;;22.34;45.34;100265.78;5117473;28;20479;-47
2021/05/12 05:34:45;;;;;;;35.83;19.30;;;;;;;22.54;45.04;100264.69;5116495;28;20939;-49
2021/05/12 05:37:12;;;;;;;29.50;16.93;;;;;;;22.50;44.46;100269.94;5116953;28;20457;-47
2021/05/12 05:39:40;;;;;;;35.10;16.53;;;;;;;22.32;45.24;100273.72;5115759;27;20473;-51
2021/05/12 05:42:09;;;;;;;30.80;15.90;;;;;;;22.15;45.44;100281.81;5117208;28;20453;-50
2021/05/12 05:44:36;;;;;;;32.77;16.67;;;;;;;22.59;45.73;100286.47;5115695;28;20504;-49
2021/05/12 05:47:04;;;;;;;33.30;17.40;;;;;;;22.99;43.41;100285.84;5116758;28;20461;-51
2021/05/12 05:49:32;;;;;;;28.80;15.40;;;;;;;22.31;44.83;100281.63;5114982;28;20483;-46
2021/05/12 05:51:59;;;;;;;36.73;16.27;;;;;;;22.15;45.76;100289.69;5117180;28;20772;-49
2021/05/12 05:54:27;;;;;;;36.00;17.40;;;;;;;22.47;45.58;100296.28;5115822;28;20857;-49
2021/05/12 05:56:54;;;;;;;27.17;14.60;;;;;;;22.08;45.41;100302.06;5116655;28;20488;-47
2021/05/12 05:59:22;;;;;;;19.50;12.47;;;;;;;22.25;45.01;100304.44;5115381;28;20472;-50
2021/05/12 06:01:49;;;;;;;22.10;12.00;;;;;;;22.24;45.02;100315.84;5116747;28;20500;-49
2021/05/12 06:04:16;;;;;;;23.20;13.70;;;;;;;22.68;44.25;100317.00;5115994;28;20465;-48
2021/05/12 06:06:43;;;;;;;20.13;12.63;;;;;;;22.13;45.06;100320.38;5116524;28;20809;-48
2021/05/12 06:09:10;;;;;;;24.07;12.43;;;;;;;22.40;44.67;100326.13;5114732;28;20522;-49
2021/05/12 06:11:41;;;;;;;22.87;13.23;;;;;;;22.59;44.69;100320.66;5116560;28;20752;-47
2021/05/12 06:14:09;;;;;;;21.77;14.23;;;;;;;22.49;44.74;100326.03;5115338;28;20536;-47
2021/05/12 06:16:36;;;;;;;21.13;12.57;;;;;;;22.03;45.79;100329.25;5116121;28;20453;-48
2021/05/12 06:19:03;;;;;;;22.27;12.83;;;;;;;22.84;44.26;100334.28;5115750;28;20483;-50
2021/05/12 06:21:31;;;;;;;25.80;13.10;;;;;;;22.87;43.36;100338.63;5116361;28;20484;-49
2021/05/12 06:23:58;;;;;;;18.50;12.20;;;;;;;22.63;44.30;100346.00;5115387;28;20457;-50
2021/05/12 06:26:25;;;;;;;23.70;12.50;;;;;;;22.69;43.95;100355.53;5116027;28;20476;-47
2021/05/12 06:28:52;;;;;;;27.57;12.73;;;;;;;23.03;43.18;100358.50;5115080;28;20471;-50
2021/05/12 06:31:20;;;;;;;24.97;12.70;;;;;;;23.25;43.08;100360.78;5116147;28;20587;-51
2021/05/12 06:33:47;;;;;;;24.30;13.60;;;;;;;22.79;44.07;100363.28;5115650;28;20459;-48
2021/05/12 06:36:15;;;;;;;21.00;12.03;;;;;;;22.51;44.35;100363.69;5116297;28;20788;-49
2021/05/12 06:38:42;;;;;;;27.20;13.27;;;;;;;22.62;44.08;100376.66;5115830;28;20575;-52
2021/05/12 06:41:10;;;;;;;21.90;13.70;;;;;;;22.44;44.44;100369.88;5114870;28;20505;-52
2021/05/12 06:43:37;;;;;;;19.07;11.77;;;;;;;22.75;44.13;100376.47;5115953;28;20478;-48
2021/05/12 06:46:04;;;;;;;27.20;13.17;;;;;;;23.06;44.19;100365.50;5114874;28;20563;-52
2021/05/12 06:48:32;;;;;;;21.77;12.40;;;;;;;22.95;43.80;100373.56;5115765;28;20473;-49
2021/05/12 06:50:59;;;;;;;21.60;11.63;;;;;;;22.86;44.31;100373.72;5115004;28;20508;-47
2021/05/12 06:53:27;;;;;;;23.00;13.57;;;;;;;22.86;43.99;100365.84;5115904;28;20905;-49
2021/05/12 06:55:55;;;;;;;26.80;12.90;;;;;;;22.75;44.27;100371.22;5114750;28;20473;-50
2021/05/12 06:58:22;;;;;;;23.63;12.60;;;;;;;23.13;43.54;100377.63;5115847;28;20479;-48
2021/05/12 07:00:51;;;;;;;23.30;11.63;;;;;;;23.31;43.14;100379.13;5116728;28;20473;-48
2021/05/12 07:03:19;;;;;;;24.67;13.57;;;;;;;23.35;43.36;100381.72;5120485;28;20463;-52
2021/05/12 07:05:47;;;;;;;26.43;14.03;;;;;;;22.71;44.56;100385.34;5119442;28;20559;-48
2021/05/12 07:08:14;;;;;;;47.17;24.10;;;;;;;23.39;43.82;100386.03;5119828;28;20858;-50
2021/05/12 07:10:42;;;;;;;21.93;12.80;;;;;;;23.09;43.62;100381.22;5118755;28;20526;-47
2021/05/12 07:13:09;;;;;;;24.67;14.23;;;;;;;22.99;44.24;100390.16;5120265;28;20449;-49
2021/05/12 07:15:36;;;;;;;26.93;16.20;;;;;;;22.98;44.03;100393.69;5118626;28;20771;-47
2021/05/12 07:18:03;;;;;;;28.27;17.90;;;;;;;23.13;43.65;100397.84;5119538;28;20564;-48
2021/05/12 07:20:30;;;;;;;54.60;26.60;;;;;;;23.52;42.68;100391.97;5119147;28;20922;-51
2021/05/12 07:23:05;;;;;;;27.50;17.27;;;;;;;23.79;42.63;100400.22;5119410;28;20453;-49
2021/05/12 07:25:32;;;;;;;37.93;21.20;;;;;;;23.45;43.95;100406.97;5118444;28;20904;-51
2021/05/12 07:28:00;;;;;;;28.70;18.43;;;;;;;23.71;42.36;100400.38;5119614;28;20477;-48
2021/05/12 07:30:27;;;;;;;34.80;17.90;;;;;;;23.70;42.83;100403.91;5118245;28;20952;-48
2021/05/12 07:32:54;;;;;;;35.83;18.83;;;;;;;23.66;42.59;100402.22;5119746;28;20463;-50
2021/05/12 07:35:21;;;;;;;25.10;17.27;;;;;;;23.73;42.85;100391.56;5118710;28;20786;-51
2021/05/12 07:37:49;;;;;;;30.53;18.03;;;;;;;23.28;42.69;100387.03;5119486;28;20518;-50
2021/05/12 07:40:17;;;;;;;28.97;17.60;;;;;;;23.42;43.57;100393.84;5118405;28;20481;-50
2021/05/12 07:42:45;;;;;;;32.23;18.00;;;;;;;23.60;43.28;100395.31;5119621;28;20461;-47
2021/05/12 07:45:13;;;;;;;35.73;18.83;;;;;;;23.74;42.65;100398.53;5118196;28;20574;-47
2021/05/12 07:47:49;;;;;;;34.63;19.00;;;;;;;24.18;42.43;100399.47;5118816;28;20855;-50
2021/05/12 07:50:16;;;;;;;26.63;15.60;;;;;;;23.77;42.17;100405.53;5118437;28;20506;-50
2021/05/12 07:52:44;;;;;;;28.83;15.50;;;;;;;23.78;41.91;100417.78;5118700;28;20449;-51
2021/05/12 07:55:11;;;;;;;29.70;15.97;;;;;;;23.68;43.17;100408.34;5116514;28;20472;-50
2021/05/12 07:57:40;;;;;;;28.67;15.47;;;;;;;24.08;42.33;100423.41;5118314;28;20482;-51
2021/05/12 08:00:09;;;;;;;58.50;29.27;;;;;;;24.18;41.89;100412.66;5117696;28;20550;-48
2021/05/12 08:02:36;;;;;;;20.60;13.93;;;;;;;23.40;44.43;100427.25;5118843;28;20451;-48
2021/05/12 08:05:03;;;;;;;24.13;14.00;;;;;;;23.83;42.36;100423.84;5117742;28;20478;-48
2021/05/12 08:07:31;;;;;;;55.07;31.53;;;;;;;24.17;41.71;100422.34;5118206;28;20903;-50
2021/05/12 08:09:59;;;;;;;27.37;13.97;;;;;;;23.69;43.16;100428.50;5117337;28;21004;-48
2021/05/12 08:12:26;;;;;;;28.03;13.80;;;;;;;23.83;42.95;100430.88;5118032;28;20452;-49
2021/05/12 08:14:53;;;;;;;112.57;44.13;;;;;;;24.50;41.79;100425.19;5116825;27;20492;-49
2021/05/12 08:17:21;;;;;;;28.80;14.80;;;;;;;23.68;43.05;100429.41;5118076;28;20472;-48
2021/05/12 08:19:48;;;;;;;45.93;21.77;;;;;;;23.56;43.76;100439.25;5117991;27;20502;-50
2021/05/12 08:22:15;;;;;;;26.80;15.53;;;;;;;23.93;42.74;100436.84;5118603;28;20770;-50
2021/05/12 08:24:42;;;;;;;36.80;19.53;;;;;;;24.50;41.86;100432.22;5117313;27;20581;-50
2021/05/12 08:27:09;;;;;;;30.90;15.87;;;;;;;24.16;41.89;100440.81;5118196;28;20458;-50
2021/05/12 08:29:39;;;;;;;24.67;13.70;;;;;;;23.95;42.78;100453.50;5116856;28;20790;-50
2021/05/12 08:32:09;;;;;;;30.13;15.83;;;;;;;24.09;42.34;100456.75;5118406;28;20482;-49
2021/05/12 08:34:37;;;;;;;22.77;14.20;;;;;;;24.49;41.95;100452.44;5117561;28;20488;-48
2021/05/12 08:37:04;;;;;;;23.13;14.27;;;;;;;23.79;42.62;100453.75;5117713;28;20473;-47
2021/05/12 08:39:31;;;;;;;80.20;31.37;;;;;;;24.02;43.39;100468.28;5103478;28;20516;-53
2021/05/12 08:41:59;;;;;;;105.83;36.43;;;;;;;23.73;43.03;100467.03;5118248;28;20547;-48
2021/05/12 08:44:26;;;;;;;22.50;11.73;;;;;;;24.02;43.41;100460.38;5116875;27;20541;-49
2021/05/12 08:46:53;;;;;;;28.20;11.80;;;;;;;23.74;43.30;100460.91;5117835;28;20458;-48
2021/05/12 08:49:23;;;;;;;69.73;25.67;;;;;;;23.92;41.97;100453.53;5116721;27;20842;-51
2021/05/12 08:51:50;;;;;;;80.57;27.17;;;;;;;23.83;41.56;100459.84;5117910;28;20570;-48
2021/05/12 08:54:18;;;;;;;18.27;7.67;;;;;;;23.67;42.90;100464.50;5116707;27;20478;-49
2021/05/12 08:56:45;;;;;;;27.43;12.10;;;;;;;24.00;41.72;100459.53;5117379;28;20547;-50
2021/05/12 08:59:12;;;;;;;22.80;9.73;;;;;;;24.03;41.08;100454.19;5104034;28;20556;-49
2021/05/12 09:01:39;;;;;;;20.77;7.67;;;;;;;24.27;42.07;100447.59;5113456;28;20499;-49
2021/05/12 09:04:06;;;;;;;17.73;9.40;;;;;;;24.78;40.60;100447.44;5114364;27;20474;-48
2021/05/12 09:06:34;;;;;;;27.60;11.27;;;;;;;24.90;41.11;100447.19;5117363;28;20551;-48
2021/05/12 09:09:05;;;;;;;18.47;8.90;;;;;;;25.23;40.96;100448.19;5116473;27;20486;-51
2021/05/12 09:11:33;;;;;;;21.37;8.40;;;;;;;25.33;40.19;100444.44;5117250;28;20516;-49
2021/05/12 09:14:01;;;;;;;32.93;13.03;;;;;;;24.12;42.05;100454.06;5116686;27;20504;-49
2021/05/12 09:16:29;;;;;;;19.43;9.37;;;;;;;24.93;41.57;100446.25;5117245;28;20462;-50
2021/05/12 09:19:03;;;;;;;14.50;8.30;;;;;;;25.21;39.64;100443.81;5116783;27;20504;-48
2021/05/12 09:21:45;;;;;;;18.60;9.37;;;;;;;24.66;40.24;100438.88;5117169;28;20467;-50
2021/05/12 09:24:27;;;;;;;18.90;7.80;;;;;;;24.82;39.71;100428.03;5114622;28;20476;-50
2021/05/12 09:26:56;;;;;;;15.13;7.77;;;;;;;25.11;39.36;100429.09;5117105;28;20498;-49
2021/05/12 09:29:30;;;;;;;18.00;7.63;;;;;;;24.68;40.60;100426.53;5115729;28;20796;-48
2021/05/12 09:32:06;;;;;;;13.40;6.83;;;;;;;24.92;41.19;100424.25;5117097;28;20484;-47
2021/05/12 09:34:56;;;;;;;12.50;6.30;;;;;;;24.85;38.94;100425.31;5116344;28;20840;-49
2021/05/12 09:37:30;;;;;;;10.90;5.97;;;;;;;24.63;39.09;100433.69;5116399;28;20485;-47
2021/05/12 09:39:59;;;;;;;13.10;6.43;;;;;;;24.65;38.89;100447.72;5114441;27;20520;-50
2021/05/12 09:42:26;;;;;;;14.17;6.50;;;;;;;24.81;38.70;100447.38;5115479;28;20456;-49
2021/05/12 09:45:11;;;;;;;13.70;5.77;;;;;;;24.16;40.78;100456.63;5114055;27;20772;-48
2021/05/12 09:47:39;;;;;;;13.97;5.37;;;;;;;24.39;41.03;100451.78;5115411;28;20477;-49
2021/05/12 09:50:11;;;;;;;12.67;5.57;;;;;;;24.05;40.68;100452.41;5114997;27;20567;-48
2021/05/12 09:52:40;;;;;;;10.73;5.70;;;;;;;23.84;41.25;100454.53;5115635;28;20933;-49
2021/05/12 09:55:09;;;;;;;11.53;5.67;;;;;;;24.28;40.08;100459.03;5114598;27;20574;-50
2021/05/12 09:57:36;;;;;;;22.00;9.33;;;;;;;24.71;39.89;100453.75;5115729;28;20562;-48
2021/05/12 10:00:04;;;;;;;30.20;12.53;;;;;;;24.19;41.24;100453.94;5114129;28;20571;-50
2021/05/12 10:02:44;;;;;;;13.47;5.73;;;;;;;24.35;40.45;100460.63;5116267;28;20462;-49
2021/05/12 10:05:12;;;;;;;12.63;6.00;;;;;;;24.93;39.25;100460.28;5115113;28;20567;-48
2021/05/12 10:07:49;;;;;;;14.30;5.50;;;;;;;25.81;37.74;100460.84;5115261;28;20476;-48
2021/05/12 10:10:35;;;;;;;17.07;7.00;;;;;;;25.58;38.60;100459.69;5114845;28;20481;-48
2021/05/12 10:13:02;;;;;;;10.70;4.60;;;;;;;25.39;37.82;100464.53;5114261;28;20471;-52
2021/05/12 10:15:29;;;;;;;9.70;4.90;;;;;;;25.33;37.71;100460.28;5114111;28;20474;-48
2021/05/12 10:17:56;;;;;;;10.53;4.40;;;;;;;25.08;38.26;100466.13;5115511;28;20563;-49
2021/05/12 10:20:24;;;;;;;8.70;4.33;;;;;;;25.12;38.37;100470.41;5115374;28;20471;-48
2021/05/12 10:22:54;;;;;;;9.57;4.47;;;;;;;24.71;38.70;100461.66;5116347;28;20451;-49
2021/05/12 10:25:22;;;;;;;9.53;4.47;;;;;;;25.70;37.22;100469.94;5115066;28;20482;-48
2021/05/12 10:27:49;;;;;;;11.70;4.93;;;;;;;25.74;37.16;100486.56;5115681;28;20488;-51
2021/05/12 10:30:17;;;;;;;13.37;6.13;;;;;;;25.00;38.13;100475.97;5114719;28;20648;-49
2021/05/12 10:32:50;;;;;;;32.50;17.03;;;;;;;25.16;38.10;100480.00;5115902;28;20571;-50
2021/05/12 10:35:17;;;;;;;14.33;7.50;;;;;;;25.24;38.04;100482.47;5115168;28;20508;-48
2021/05/12 10:37:46;;;;;;;12.27;6.40;;;;;;;25.96;36.71;100475.41;5115645;28;20567;-52
2021/05/12 10:40:19;;;;;;;9.90;4.17;;;;;;;25.79;37.38;100484.66;5114825;28;20476;-52
2021/05/12 10:42:57;;;;;;;17.07;7.87;;;;;;;26.02;36.62;100481.41;5116111;28;20798;-52
2021/05/12 10:45:35;;;;;;;26.17;12.40;;;;;;;25.94;37.53;100478.09;5114143;28;20490;-49
2021/05/12 10:48:05;;;;;;;20.87;9.33;;;;;;;25.73;37.73;100475.13;5115478;28;20536;-48
2021/05/12 10:50:45;;;;;;;7.10;3.90;;;;;;;25.48;38.15;100473.06;5115093;28;20504;-50
2021/05/12 10:53:20;;;;;;;6.27;2.73;;;;;;;25.34;37.64;100473.41;5116060;28;20538;-46
2021/05/12 10:56:06;;;;;;;6.33;2.90;;;;;;;25.44;37.98;100468.75;5114738;28;20795;-47
2021/05/12 10:58:47;;;;;;;9.17;3.07;;;;;;;25.19;38.30;100472.03;5115521;28;20513;-52
2021/05/12 11:01:14;;;;;;;7.20;3.30;;;;;;;25.01;38.39;100478.59;5115537;28;20545;-49
2021/05/12 11:04:06;;;;;;;9.77;3.93;;;;;;;25.33;38.07;100476.97;5115765;28;20485;-51
2021/05/12 11:07:04;;;;;;;5.30;3.50;;;;;;;25.58;37.80;100486.09;5115502;28;20495;-50
2021/05/12 11:09:43;;;;;;;7.80;3.77;;;;;;;24.68;39.14;100488.97;5114008;28;20573;-47
2021/05/12 11:12:12;;;;;;;7.50;3.67;;;;;;;24.65;39.65;100478.47;5115663;28;20488;-49
2021/05/12 11:14:40;;;;;;;6.20;3.70;;;;;;;24.71;40.18;100493.31;5114712;27;20558;-48
2021/05/12 11:17:09;;;;;;;112.20;42.17;;;;;;;25.33;38.05;100486.66;5115136;28;20766;-47
2021/05/12 11:19:46;;;;;;;7.57;5.70;;;;;;;25.49;37.96;100488.00;5114715;28;20475;-49